»·PEaware :: N360BG KNXP-38U

N360BG :: KNXP-38U

FLIGHT INFORMATION

Flight Status: Arrived
Operator: Privately registered:
United States
More flights under this callsign
Pilot: Brandon G. (13)
Aircraft: BEECH AIRCRAFT BARON
(BE58)
More flights by this aircraft type
Origin: KNXP Twentynine Palms EAF
United States
Destination: 38U Wayne Wonderland
United States
More flights between these airports :: More routes between these airports
Route: +JOTNU V514 LYNSY V8 MOJVI
File this flight plan on PilotEdge
Remarks:
Altitude:
(Current/Filed)
13,000ft
Speed:
(Current/Filed)
200kts
Departed: 09-Aug-17 11:52 AM
Arrived: 09-Aug-17 01:39 PM
Distance/Time
Traveled:
330nm/1:47
Distance/Time
To Go:
Arrived

Flight Plot

Page will automatically refresh every two minutes.

Flight plan parsing failed; only flown route is shown


Map Options




Map Legend


Flown Route
Filed Route
Departure Airport
Arrival Airport
Navaid (VOR, NDB)
Fix

Horizontal Profiles

Position Reports

Time Latitude Longitude Heading Altitude Ground
Speed
09-Aug-17 11:46 34.299481 -116.166997 21 2021ft 0kts
09-Aug-17 11:47 34.299481 -116.166997 21 2021ft 0kts
09-Aug-17 11:48 34.299481 -116.166997 21 2021ft 0kts
09-Aug-17 11:49 34.299481 -116.166997 21 2021ft 0kts
09-Aug-17 11:50 34.299481 -116.166997 21 2021ft 0kts
09-Aug-17 11:51 34.299481 -116.166997 21 2021ft 0kts
09-Aug-17 11:52 34.299481 -116.166997 21 2021ft 0kts
09-Aug-17 11:53 34.299125 -116.167910 240 2026ft 12kts
09-Aug-17 11:54 34.300455 -116.173480 206 2039ft 12kts
09-Aug-17 11:55 34.293155 -116.153443 112 2335ft 123kts
09-Aug-17 11:56 34.275839 -116.109870 115 3393ft 153kts
09-Aug-17 11:57 34.276464 -116.062947 62 4686ft 146kts
09-Aug-17 11:58 34.292852 -116.021387 61 6072ft 130kts
09-Aug-17 11:59 34.308912 -115.980685 61 7063ft 139kts
09-Aug-17 12:00 34.327754 -115.934598 61 7710ft 162kts
09-Aug-17 12:01 34.348977 -115.884361 61 8332ft 173kts
09-Aug-17 12:02 34.366235 -115.844687 61 8798ft 179kts
09-Aug-17 12:03 34.391444 -115.791539 40 9389ft 185kts
09-Aug-17 12:04 34.433226 -115.755575 33 10010ft 186kts
09-Aug-17 12:05 34.475704 -115.720765 33 10604ft 186kts
09-Aug-17 12:06 34.518884 -115.686188 34 11204ft 186kts
09-Aug-17 12:07 34.562487 -115.650810 37 11499ft 199kts
09-Aug-17 12:08 34.609752 -115.611492 37 11486ft 211kts
09-Aug-17 12:09 34.658694 -115.570945 37 11461ft 215kts
09-Aug-17 12:10 34.699992 -115.536751 37 11431ft 217kts
09-Aug-17 12:11 34.749805 -115.495456 37 11397ft 216kts
09-Aug-17 12:12 34.801756 -115.459094 28 11377ft 218kts
09-Aug-17 12:13 34.864227 -115.422451 26 11504ft 216kts
09-Aug-17 12:14 34.918665 -115.390784 26 11504ft 218kts
09-Aug-17 12:15 34.953173 -115.370574 26 11503ft 217kts
09-Aug-17 12:16 34.965559 -115.363307 26 11503ft 217kts
09-Aug-17 12:17 35.009720 -115.337594 28 11502ft 214kts
09-Aug-17 12:18 35.062760 -115.305993 27 11505ft 212kts
09-Aug-17 12:19 35.114779 -115.275479 27 11508ft 212kts
09-Aug-17 12:20 35.167747 -115.244306 27 11501ft 212kts
09-Aug-17 12:21 35.220748 -115.213002 27 11493ft 212kts
09-Aug-17 12:22 35.273387 -115.181836 27 11528ft 210kts
09-Aug-17 12:23 35.325915 -115.150695 27 11560ft 210kts
09-Aug-17 12:24 35.378486 -115.119505 27 11575ft 210kts
09-Aug-17 12:25 35.430997 -115.088315 27 11573ft 210kts
09-Aug-17 12:26 35.483441 -115.057120 27 11580ft 210kts
09-Aug-17 12:27 35.535615 -115.026035 27 11593ft 209kts
09-Aug-17 12:28 35.588000 -114.994773 26 11589ft 209kts
09-Aug-17 12:29 35.640233 -114.963557 26 11584ft 209kts
09-Aug-17 12:30 35.692584 -114.932243 26 11582ft 209kts
09-Aug-17 12:31 35.744988 -114.900846 26 11537ft 210kts
09-Aug-17 12:32 35.797286 -114.869450 26 11538ft 209kts
09-Aug-17 12:33 35.849473 -114.838081 26 11538ft 209kts
09-Aug-17 12:34 35.901375 -114.806837 26 11538ft 209kts
09-Aug-17 12:35 35.953405 -114.775471 26 11538ft 209kts
09-Aug-17 12:36 36.005562 -114.743979 26 11538ft 209kts
09-Aug-17 12:37 36.057483 -114.712586 26 11539ft 209kts
09-Aug-17 12:38 36.108875 -114.681465 26 11536ft 209kts
09-Aug-17 12:39 36.160985 -114.649866 26 11536ft 208kts
09-Aug-17 12:40 36.212807 -114.618388 26 11532ft 209kts
09-Aug-17 12:41 36.264823 -114.586750 26 11529ft 209kts
09-Aug-17 12:42 36.316805 -114.555088 26 11528ft 208kts
09-Aug-17 12:43 36.368925 -114.523291 26 11486ft 211kts
09-Aug-17 12:44 36.421444 -114.491196 26 11437ft 210kts
09-Aug-17 12:45 36.469122 -114.452911 55 11441ft 206kts
09-Aug-17 12:46 36.502491 -114.395257 55 11439ft 206kts
09-Aug-17 12:47 36.535527 -114.338542 56 11455ft 206kts
09-Aug-17 12:48 36.568994 -114.281179 56 11480ft 205kts
09-Aug-17 12:49 36.602430 -114.223684 55 11508ft 205kts
09-Aug-17 12:50 36.636032 -114.166029 55 11525ft 206kts
09-Aug-17 12:51 36.669538 -114.108387 55 11528ft 207kts
09-Aug-17 12:52 36.703233 -114.050278 55 11528ft 207kts
09-Aug-17 12:53 36.736885 -113.992143 55 11528ft 207kts
09-Aug-17 12:54 36.770401 -113.934144 55 11528ft 207kts
09-Aug-17 12:55 36.804148 -113.875645 55 11529ft 207kts
09-Aug-17 12:56 36.837673 -113.817428 55 11529ft 207kts
09-Aug-17 12:57 36.871083 -113.759313 55 11529ft 208kts
09-Aug-17 12:58 36.904718 -113.700704 55 11529ft 208kts
09-Aug-17 12:59 36.938350 -113.641998 55 11529ft 208kts
09-Aug-17 13:00 36.971670 -113.583741 55 11529ft 208kts
09-Aug-17 13:01 37.005239 -113.524960 55 11529ft 208kts
09-Aug-17 13:02 37.038778 -113.466114 56 11529ft 208kts
09-Aug-17 13:03 37.072105 -113.407534 56 11530ft 208kts
09-Aug-17 13:04 37.105008 -113.349601 56 11527ft 208kts
09-Aug-17 13:05 37.137698 -113.291954 56 11624ft 202kts
09-Aug-17 13:06 37.168744 -113.237221 57 12077ft 188kts
09-Aug-17 13:07 37.198431 -113.184734 57 12540ft 183kts
09-Aug-17 13:08 37.227632 -113.132942 58 13020ft 181kts
09-Aug-17 13:09 37.243731 -113.104357 58 13288ft 181kts
09-Aug-17 13:10 37.272686 -113.052882 58 13667ft 186kts
09-Aug-17 13:11 37.305155 -112.994767 57 13373ft 209kts
09-Aug-17 13:12 37.338489 -112.935332 56 13372ft 210kts
09-Aug-17 13:13 37.372015 -112.875484 55 13372ft 210kts
09-Aug-17 13:14 37.405330 -112.815907 55 13372ft 209kts
09-Aug-17 13:15 37.438573 -112.756442 55 13393ft 208kts
09-Aug-17 13:16 37.471379 -112.697626 55 13430ft 207kts
09-Aug-17 13:17 37.504337 -112.638361 55 13466ft 207kts
09-Aug-17 13:18 37.537142 -112.579254 55 13503ft 207kts
09-Aug-17 13:19 37.569925 -112.520081 55 13520ft 208kts
09-Aug-17 13:20 37.603032 -112.460215 55 13520ft 209kts
09-Aug-17 13:21 37.636081 -112.400345 55 13520ft 209kts
09-Aug-17 13:22 37.671406 -112.344386 40 13519ft 209kts
09-Aug-17 13:23 37.715635 -112.297007 39 13518ft 209kts
09-Aug-17 13:24 37.759757 -112.249797 39 13519ft 209kts
09-Aug-17 13:25 37.803767 -112.202564 39 13519ft 209kts
09-Aug-17 13:26 37.851923 -112.163524 22 13520ft 208kts
09-Aug-17 13:27 37.904317 -112.134001 22 13519ft 208kts
09-Aug-17 13:28 37.956740 -112.104468 22 13519ft 208kts
09-Aug-17 13:29 38.011530 -112.083217 14 13520ft 207kts
09-Aug-17 13:30 38.066508 -112.062675 14 13520ft 207kts
09-Aug-17 13:31 38.120303 -112.039741 17 13309ft 217kts
09-Aug-17 13:32 38.178014 -112.014519 17 12831ft 224kts
09-Aug-17 13:33 38.237263 -111.988882 17 12338ft 226kts
09-Aug-17 13:34 38.295849 -111.960700 30 11845ft 227kts
09-Aug-17 13:35 38.346085 -111.917030 58 11727ft 214kts
09-Aug-17 13:36 38.375852 -111.852496 60 11717ft 210kts
09-Aug-17 13:37 38.400621 -111.786619 72 11251ft 206kts
09-Aug-17 13:38 38.409946 -111.723629 89 10015ft 169kts
09-Aug-17 13:39 38.404073 -111.667316 110 8727ft 154kts
09-Aug-17 13:40 38.389690 -111.623356 128 7661ft 122kts
09-Aug-17 13:41 38.365598 -111.599006 145 7021ft 62kts
09-Aug-17 13:42 38.361822 -111.596287 141 7019ft 0kts
09-Aug-17 13:43 38.361821 -111.596287 141 7019ft 0kts
09-Aug-17 13:44 38.361821 -111.596287 141 7019ft 0kts
09-Aug-17 13:45 38.361821 -111.596287 141 7019ft 0kts
09-Aug-17 13:46 38.361821 -111.596287 141 7019ft 0kts
09-Aug-17 13:47 38.361821 -111.596287 141 7019ft 0kts
09-Aug-17 13:48 38.361821 -111.596287 141 7019ft 0kts
09-Aug-17 13:49 38.361821 -111.596287 141 7019ft 0kts
09-Aug-17 13:50 38.361821 -111.596287 141 7019ft 0kts
09-Aug-17 13:51 38.361821 -111.596287 141 7019ft 0kts
09-Aug-17 13:52 38.361822 -111.596287 141 7018ft 0kts
09-Aug-17 13:53 38.361727 -111.596175 50 7019ft 4kts
09-Aug-17 13:54 38.365708 -111.600094 328 7020ft 27kts
09-Aug-17 13:55 38.364494 -111.597934 143 7020ft 86kts
09-Aug-17 13:56 38.346406 -111.570240 121 8040ft 101kts

Navigation Log

Ident Type
Flight plan parsing failed, navigation log unavailable